Time;durP1;ratioP1;P1;durP2;ratioP2;P2;SDS_P1;SDS_P2;PMS_P1;PMS_P2;Temp;Humidity;BMP_temperature;BMP_pressure;BME280_temperature;BME280_humidity;BME280_pressure;Samples;Min_cycle;Max_cycle;Signal;HPM_P1;HPM_P2
2024/05/03 00:02:22;;;;;;;9.00;3.20;;;15.50;78.80;19.50;99826.00;;;;5491078;26;20442;-49
2024/05/03 00:04:48;;;;;;;9.05;3.67;;;15.50;78.20;19.40;99825.00;;;;5457896;26;20005;-49
2024/05/03 00:07:15;;;;;;;8.02;3.33;;;15.50;78.20;19.30;99828.00;;;;5449350;26;20324;-48
2024/05/03 00:09:40;;;;;;;9.70;3.10;;;15.50;78.30;19.30;99826.00;;;;5453868;26;20002;-48
2024/05/03 00:12:07;;;;;;;6.00;3.40;;;15.40;78.40;19.50;99823.00;;;;5469384;26;19997;-49
2024/05/03 00:14:33;;;;;;;10.15;3.42;;;15.50;78.30;19.60;99825.00;;;;5456269;26;20009;-48
2024/05/03 00:16:59;;;;;;;6.68;3.28;;;15.40;78.90;19.60;99823.00;;;;5452424;26;20038;-48
2024/05/03 00:19:25;;;;;;;8.93;3.95;;;15.30;79.50;19.50;99817.00;;;;5448836;26;20022;-47
2024/05/03 00:21:51;;;;;;;10.68;3.75;;;15.30;79.90;19.40;99817.00;;;;5447258;26;20004;-48
2024/05/03 00:24:17;;;;;;;10.60;3.63;;;15.30;79.70;19.50;99811.00;;;;5445867;26;20000;-48
2024/05/03 00:26:43;;;;;;;9.38;3.92;;;15.30;79.90;19.60;99820.00;;;;5451497;26;20002;-47
2024/05/03 00:29:10;;;;;;;7.38;3.55;;;15.20;80.00;19.50;99809.00;;;;5451451;26;19991;-53
2024/05/03 00:31:36;;;;;;;9.90;3.50;;;15.20;80.50;19.50;99819.00;;;;5442401;26;20003;-48
2024/05/03 00:34:02;;;;;;;6.93;3.35;;;15.10;80.70;19.30;99811.00;;;;5440368;26;20087;-50
2024/05/03 00:36:28;;;;;;;11.13;3.67;;;15.10;81.30;19.30;99813.00;;;;5448800;26;20003;-48
2024/05/03 00:38:54;;;;;;;9.52;3.60;;;15.00;81.10;19.30;99807.00;;;;5430904;26;20425;-47
2024/05/03 00:41:21;;;;;;;9.20;3.75;;;15.00;81.60;19.30;99806.00;;;;5439804;26;20053;-59
2024/05/03 00:43:47;;;;;;;10.98;3.25;;;15.00;80.80;19.30;99819.00;;;;5442518;26;20076;-57
2024/05/03 00:46:14;;;;;;;9.50;3.22;;;15.00;81.50;19.20;99811.00;;;;5448572;26;20309;-49
2024/05/03 00:48:41;;;;;;;10.38;3.60;;;15.00;81.50;19.20;99820.00;;;;5441669;26;19995;-47
2024/05/03 00:51:09;;;;;;;6.90;3.50;;;14.90;81.80;19.20;99811.00;;;;5430741;26;20459;-49
2024/05/03 00:53:38;;;;;;;8.02;3.78;;;14.90;82.80;19.00;99810.00;;;;5439954;26;20431;-48
2024/05/03 00:56:07;;;;;;;6.70;3.45;;;14.90;83.30;19.20;99811.00;;;;5408796;26;20014;-48
2024/05/03 00:58:35;;;;;;;11.43;3.85;;;14.80;83.50;19.10;99811.00;;;;5439975;26;19999;-48
2024/05/03 01:01:04;;;;;;;4.95;3.50;;;14.50;83.70;19.20;99812.00;;;;5440368;26;20006;-47
2024/05/03 01:03:30;;;;;;;10.07;3.90;;;14.70;84.10;19.10;99820.00;;;;5448979;26;20457;-56
2024/05/03 01:05:57;;;;;;;8.15;3.47;;;14.70;84.50;19.00;99813.00;;;;5443670;26;20036;-48
2024/05/03 01:08:24;;;;;;;7.85;3.60;;;14.70;85.30;18.70;99804.00;;;;5446275;26;19998;-48
2024/05/03 01:10:50;;;;;;;9.30;3.55;;;14.60;87.90;18.70;99808.00;;;;5437887;26;20005;-49
2024/05/03 01:13:16;;;;;;;7.82;3.92;;;14.50;87.60;18.70;99818.00;;;;5436797;26;20122;-64
2024/05/03 01:15:42;;;;;;;8.35;3.95;;;14.40;86.70;18.90;99823.00;;;;5447412;26;20009;-49
2024/05/03 01:18:08;;;;;;;6.35;3.70;;;14.40;87.20;18.80;99819.00;;;;5453712;26;19999;-48
2024/05/03 01:20:35;;;;;;;6.30;3.50;;;14.40;88.10;18.70;99819.00;;;;5444162;26;20017;-53
2024/05/03 01:23:05;;;;;;;11.35;4.00;;;14.40;90.40;18.60;99810.00;;;;5439573;26;19991;-58
2024/05/03 01:25:42;;;;;;;10.60;3.45;;;14.30;90.00;18.60;99805.00;;;;5441238;26;20003;-48
2024/05/03 01:28:09;;;;;;;11.73;3.70;;;14.20;90.30;18.20;99811.00;;;;5435976;26;20007;-48
2024/05/03 01:30:36;;;;;;;9.88;3.30;;;14.20;90.00;18.30;99810.00;;;;5436234;26;20432;-48
2024/05/03 01:33:02;;;;;;;7.15;3.38;;;14.20;90.00;18.30;99806.00;;;;5440849;26;20011;-48
2024/05/03 01:35:28;;;;;;;11.90;3.75;;;14.20;90.10;18.40;99802.00;;;;5445697;26;20007;-48
2024/05/03 01:37:54;;;;;;;9.25;3.40;;;14.30;90.10;18.40;99800.00;;;;5450487;26;20013;-48
2024/05/03 01:40:20;;;;;;;5.32;3.30;;;14.20;90.10;18.50;99798.00;;;;5457161;26;20345;-48
2024/05/03 01:42:47;;;;;;;7.25;3.30;;;14.20;90.40;18.40;99797.00;;;;5445912;26;20022;-48
2024/05/03 01:45:18;;;;;;;8.23;3.30;;;14.20;90.90;18.30;99800.00;;;;5455586;26;20002;-49
2024/05/03 01:47:44;;;;;;;5.90;3.65;;;14.10;92.50;18.30;99800.00;;;;5444483;26;20036;-49
2024/05/03 01:50:10;;;;;;;6.28;3.40;;;14.00;93.10;18.10;99793.00;;;;5443026;26;20421;-52
2024/05/03 01:52:36;;;;;;;7.72;3.10;;;13.90;93.70;18.10;99793.00;;;;5452572;26;19999;-52
2024/05/03 01:55:04;;;;;;;9.68;3.58;;;13.80;94.60;17.90;99804.00;;;;5449272;26;20009;-49
2024/05/03 01:57:36;;;;;;;8.32;3.50;;;13.70;95.20;17.80;99804.00;;;;5431185;26;19999;-49
2024/05/03 02:00:03;;;;;;;4.82;3.05;;;13.70;94.80;17.70;99802.00;;;;5454944;26;20509;-54
2024/05/03 02:02:30;;;;;;;11.60;3.58;;;13.70;94.80;17.70;99800.00;;;;5455338;26;20014;-47
2024/05/03 02:04:56;;;;;;;10.55;3.35;;;13.70;95.20;17.70;99796.00;;;;5451550;26;20053;-46
2024/05/03 02:07:22;;;;;;;4.55;2.88;;;13.70;94.50;17.70;99801.00;;;;5445700;26;20010;-47
2024/05/03 02:09:48;;;;;;;4.72;3.30;;;13.70;94.30;17.70;99793.00;;;;5453446;26;19999;-47
2024/05/03 02:12:15;;;;;;;10.85;3.17;;;13.70;94.50;17.90;99794.00;;;;5446546;26;20003;-47
2024/05/03 02:14:41;;;;;;;9.15;3.20;;;13.70;94.30;17.90;99782.00;;;;5447191;26;20009;-47
2024/05/03 02:17:08;;;;;;;13.15;3.97;;;13.70;94.30;17.90;99785.00;;;;5452189;26;20002;-48
2024/05/03 02:19:34;;;;;;;10.80;3.50;;;13.70;94.10;17.90;99777.00;;;;5452049;26;20068;-48
2024/05/03 02:22:01;;;;;;;8.48;3.35;;;13.80;94.20;18.00;99784.00;;;;5448932;26;20013;-48
2024/05/03 02:24:27;;;;;;;5.82;3.08;;;13.70;94.30;18.00;99777.00;;;;5434458;26;20035;-48
2024/05/03 02:26:53;;;;;;;5.10;3.15;;;13.80;94.30;18.10;99774.00;;;;5452223;26;20017;-48
2024/05/03 02:29:20;;;;;;;6.93;3.13;;;13.80;94.20;18.10;99779.00;;;;5454682;26;20023;-48
2024/05/03 02:31:49;;;;;;;8.73;3.00;;;13.80;94.10;18.10;99774.00;;;;5442017;26;20000;-48
2024/05/03 02:34:15;;;;;;;9.88;2.92;;;13.80;94.40;17.90;99788.00;;;;5445302;26;19998;-57
2024/05/03 02:36:41;;;;;;;6.13;3.03;;;13.70;94.40;17.90;99781.00;;;;5450374;26;20353;-49
2024/05/03 02:39:08;;;;;;;8.73;2.88;;;13.70;94.40;17.70;99776.00;;;;5450889;26;20006;-55
2024/05/03 02:41:34;;;;;;;8.65;3.20;;;13.70;94.50;17.80;99775.00;;;;5457443;26;19999;-48
2024/05/03 02:44:00;;;;;;;7.72;3.45;;;13.70;94.50;17.80;99783.00;;;;5453877;26;20011;-50
2024/05/03 02:46:26;;;;;;;9.00;2.97;;;13.60;94.60;17.80;99776.00;;;;5443914;26;20353;-48
2024/05/03 02:48:52;;;;;;;6.00;2.95;;;13.70;94.50;17.80;99775.00;;;;5455167;26;20300;-48
2024/05/03 02:51:19;;;;;;;8.05;2.83;;;13.60;94.80;18.00;99780.00;;;;5451285;26;20421;-49
2024/05/03 02:53:45;;;;;;;13.73;3.58;;;13.70;94.80;18.00;99776.00;;;;5453191;26;20436;-47
2024/05/03 02:56:11;;;;;;;9.80;3.65;;;13.70;95.10;18.00;99780.00;;;;5449241;26;20431;-50
2024/05/03 02:58:38;;;;;;;6.25;3.15;;;13.60;95.30;17.90;99779.00;;;;5449697;26;20010;-49
2024/05/03 03:01:07;;;;;;;5.40;3.00;;;13.60;95.80;17.70;99775.00;;;;5436270;26;20488;-48
2024/05/03 03:03:33;;;;;;;8.68;3.40;;;13.50;95.70;17.70;99778.00;;;;5438070;26;19994;-48
2024/05/03 03:06:03;;;;;;;9.70;3.40;;;13.50;95.70;17.70;99774.00;;;;5444989;26;20007;-47
2024/05/03 03:08:30;;;;;;;7.47;3.53;;;13.50;97.00;17.70;99774.00;;;;5444052;26;20029;-51
2024/05/03 03:10:56;;;;;;;11.13;2.97;;;13.40;96.70;17.70;99776.00;;;;5457726;26;20432;-48
2024/05/03 03:13:22;;;;;;;5.22;3.35;;;13.40;97.50;17.70;99779.00;;;;5459470;26;20091;-48
2024/05/03 03:15:49;;;;;;;10.15;3.38;;;13.30;98.00;17.60;99783.00;;;;5458668;26;20009;-48
2024/05/03 03:18:15;;;;;;;10.45;3.22;;;13.30;97.90;17.40;99769.00;;;;5459331;26;20013;-48
2024/05/03 03:20:41;;;;;;;9.23;4.03;;;13.30;98.70;17.50;99777.00;;;;5459233;26;19999;-52
2024/05/03 03:23:08;;;;;;;8.45;3.08;;;13.20;97.80;17.50;99784.00;;;;5459093;26;20079;-48
2024/05/03 03:25:34;;;;;;;10.35;2.90;;;13.30;99.50;17.60;99789.00;;;;5456437;26;19999;-48
2024/05/03 03:28:00;;;;;;;10.80;3.40;;;13.30;98.90;17.40;99782.00;;;;5458167;26;19994;-48
2024/05/03 03:30:26;;;;;;;8.88;3.13;;;13.20;99.10;17.50;99796.00;;;;5444801;26;19999;-50
2024/05/03 03:32:53;;;;;;;6.18;3.05;;;13.20;99.00;17.60;99789.00;;;;5445592;26;19999;-57
2024/05/03 03:35:19;;;;;;;7.13;3.70;;;13.20;99.90;17.50;99793.00;;;;5457712;26;20429;-49
2024/05/03 03:37:45;;;;;;;8.75;2.75;;;13.10;99.90;17.40;99795.00;;;;5451015;26;20030;-64
2024/05/03 03:40:11;;;;;;;6.75;3.28;;;13.10;99.90;17.20;99809.00;;;;5438699;26;19994;-49
2024/05/03 03:42:37;;;;;;;7.20;3.30;;;13.10;99.20;17.40;99801.00;;;;5450532;26;20320;-48
2024/05/03 03:45:05;;;;;;;8.65;3.15;;;13.20;99.00;17.50;99805.00;;;;5458046;26;20337;-48
2024/05/03 03:47:34;;;;;;;11.75;3.85;;;13.30;98.70;17.70;99798.00;;;;5452223;26;20017;-51
2024/05/03 03:50:01;;;;;;;6.95;3.13;;;13.30;98.90;17.40;99793.00;;;;5458516;26;20425;-48
2024/05/03 03:52:30;;;;;;;6.57;2.97;;;13.40;98.20;17.60;99800.00;;;;5445612;26;20017;-48
2024/05/03 03:54:56;;;;;;;10.82;3.17;;;13.50;97.90;17.40;99800.00;;;;5455298;26;20708;-49
2024/05/03 03:57:22;;;;;;;7.90;3.33;;;13.60;97.80;17.70;99801.00;;;;5444238;26;20092;-47
2024/05/03 03:59:48;;;;;;;7.35;3.40;;;13.60;97.60;17.60;99808.00;;;;5455291;26;20013;-48
2024/05/03 04:02:15;;;;;;;5.30;3.30;;;13.60;97.50;17.40;99796.00;;;;5449523;26;20013;-48
2024/05/03 04:04:41;;;;;;;5.93;3.25;;;13.70;97.80;17.50;99802.00;;;;5452294;26;20003;-48
2024/05/03 04:07:10;;;;;;;5.95;3.33;;;13.70;98.00;17.70;99803.00;;;;5457909;26;20002;-48
2024/05/03 04:09:36;;;;;;;12.27;3.65;;;13.70;98.00;17.50;99790.00;;;;5458557;26;20035;-47
2024/05/03 04:12:03;;;;;;;5.97;3.10;;;13.70;98.30;17.20;99808.00;;;;5458097;26;19991;-49
2024/05/03 04:14:29;;;;;;;9.30;4.30;;;13.70;98.30;17.40;99803.00;;;;5458676;26;19999;-48
2024/05/03 04:16:56;;;;;;;8.00;3.30;;;13.70;98.40;17.70;99798.00;;;;5452990;26;20011;-47
2024/05/03 04:19:22;;;;;;;7.18;3.58;;;13.70;98.30;17.60;99807.00;;;;5444118;26;20013;-48
2024/05/03 04:21:48;;;;;;;7.72;3.05;;;13.80;98.30;17.50;99803.00;;;;5436414;26;19996;-47
2024/05/03 04:24:14;;;;;;;9.38;3.30;;;13.80;98.40;17.90;99808.00;;;;5432393;26;20097;-47
2024/05/03 04:26:41;;;;;;;8.35;3.60;;;13.90;98.10;17.70;99804.00;;;;5442512;26;20022;-54
2024/05/03 04:29:06;;;;;;;9.48;2.97;;;14.00;98.00;18.00;99800.00;;;;5442101;26;20028;-49
2024/05/03 04:31:37;;;;;;;9.88;4.20;;;14.10;97.70;17.90;99802.00;;;;5442032;26;20006;-52
2024/05/03 04:34:03;;;;;;;7.22;3.25;;;14.20;97.60;18.20;99807.00;;;;5444506;26;20005;-48
2024/05/03 04:36:30;;;;;;;8.93;3.65;;;14.20;97.50;18.30;99803.00;;;;5442413;26;20029;-47
2024/05/03 04:38:56;;;;;;;7.53;3.05;;;14.30;97.40;18.40;99805.00;;;;5448528;26;20018;-48
2024/05/03 04:41:22;;;;;;;6.05;3.53;;;14.50;97.10;18.60;99803.00;;;;5457436;26;20002;-48
2024/05/03 04:43:48;;;;;;;7.45;3.40;;;14.60;96.30;18.60;99795.00;;;;5458330;26;20316;-48
2024/05/03 04:46:18;;;;;;;5.47;3.17;;;14.80;95.70;18.80;99808.00;;;;5444364;26;20457;-48
2024/05/03 04:48:44;;;;;;;7.70;3.55;;;14.90;95.50;19.00;99800.00;;;;5431543;26;20000;-47
2024/05/03 04:51:11;;;;;;;4.95;2.92;;;15.00;94.70;19.10;99794.00;;;;5441994;26;20135;-48
2024/05/03 04:53:38;;;;;;;6.93;3.30;;;15.20;94.60;19.20;99793.00;;;;5443832;26;20003;-48
2024/05/03 04:56:04;;;;;;;9.25;3.17;;;15.30;94.20;19.40;99794.00;;;;5436287;26;20010;-51
2024/05/03 04:58:31;;;;;;;8.98;3.05;;;15.40;94.00;19.60;99802.00;;;;5438267;26;20003;-48
2024/05/03 05:00:57;;;;;;;8.27;3.22;;;15.50;93.50;19.90;99797.00;;;;5435888;26;20002;-47
2024/05/03 05:03:23;;;;;;;8.73;3.50;;;15.70;93.30;20.20;99803.00;;;;5442937;26;20030;-48
2024/05/03 05:05:49;;;;;;;8.32;3.25;;;15.80;93.40;20.00;99796.00;;;;5435102;26;20003;-53
2024/05/03 05:08:15;;;;;;;8.45;3.22;;;16.00;92.60;20.30;99799.00;;;;5441210;26;19999;-49
2024/05/03 05:10:42;;;;;;;5.85;3.03;;;16.20;92.00;20.50;99793.00;;;;5434849;26;20040;-50
2024/05/03 05:13:08;;;;;;;6.85;2.88;;;16.40;91.20;20.50;99797.00;;;;5437819;26;19999;-48
2024/05/03 05:15:34;;;;;;;5.85;2.63;;;16.50;90.30;20.40;99802.00;;;;5437554;26;20011;-48
2024/05/03 05:18:01;;;;;;;10.82;2.88;;;16.60;90.70;20.40;99802.00;;;;5444259;26;19999;-48
2024/05/03 05:20:28;;;;;;;8.50;3.08;;;16.70;90.50;20.40;99811.00;;;;5442395;26;20022;-47
2024/05/03 05:22:54;;;;;;;4.68;2.70;;;16.80;90.20;20.90;99808.00;;;;5431279;26;20011;-47
2024/05/03 05:25:22;;;;;;;12.55;3.10;;;16.90;89.60;21.20;99800.00;;;;5438380;26;20064;-48
2024/05/03 05:27:49;;;;;;;6.55;2.60;;;17.00;90.00;21.10;99817.00;;;;5429781;26;20079;-48
2024/05/03 05:30:15;;;;;;;7.05;3.10;;;17.20;89.50;21.00;99821.00;;;;5441708;26;20006;-49
2024/05/03 05:32:41;;;;;;;5.88;3.25;;;17.30;88.80;21.20;99821.00;;;;5439552;26;19995;-49
2024/05/03 05:35:07;;;;;;;7.72;3.33;;;17.30;87.80;21.20;99832.00;;;;5435835;26;20013;-49
2024/05/03 05:37:34;;;;;;;4.57;2.70;;;17.30;87.60;21.30;99831.00;;;;5447828;26;20017;-48
2024/05/03 05:40:01;;;;;;;7.72;3.00;;;17.40;88.10;21.40;99828.00;;;;5446254;26;20398;-49
2024/05/03 05:42:27;;;;;;;6.95;3.28;;;17.50;86.60;21.20;99838.00;;;;5440843;26;19996;-48
2024/05/03 05:44:53;;;;;;;8.60;3.65;;;17.50;86.10;21.60;99839.00;;;;5443424;26;20519;-47
2024/05/03 05:47:19;;;;;;;11.32;3.53;;;17.60;86.80;21.80;99844.00;;;;5441008;26;20073;-51
2024/05/03 05:49:45;;;;;;;10.23;3.25;;;17.70;86.80;21.80;99840.00;;;;5440798;26;20038;-49
2024/05/03 05:52:12;;;;;;;8.73;3.20;;;17.80;86.20;21.70;99845.00;;;;5435484;26;20459;-47
2024/05/03 05:54:38;;;;;;;7.78;3.45;;;17.90;85.70;21.70;99857.00;;;;5436006;26;20010;-48
2024/05/03 05:57:04;;;;;;;4.38;3.33;;;17.90;84.30;21.80;99847.00;;;;5435921;26;20002;-48
2024/05/03 05:59:30;;;;;;;6.93;3.38;;;17.90;84.60;22.10;99851.00;;;;5451024;26;20071;-49
2024/05/03 06:01:58;;;;;;;7.68;3.40;;;18.00;84.80;22.30;99848.00;;;;5444816;26;19991;-48
2024/05/03 06:04:24;;;;;;;6.53;3.38;;;18.10;85.00;22.40;99855.00;;;;5445949;26;20002;-48
2024/05/03 06:06:50;;;;;;;7.32;3.33;;;18.20;84.60;22.40;99853.00;;;;5446975;26;20017;-48
2024/05/03 06:09:16;;;;;;;6.28;2.97;;;18.30;84.40;21.90;99847.00;;;;5440226;26;19998;-48
2024/05/03 06:11:45;;;;;;;10.32;3.10;;;18.40;83.30;22.20;99854.00;;;;5439725;26;19998;-48
2024/05/03 06:14:15;;;;;;;9.70;3.42;;;18.50;82.70;22.40;99856.00;;;;5448880;26;20003;-47
2024/05/03 06:16:41;;;;;;;5.35;3.22;;;18.60;82.20;22.60;99853.00;;;;5453134;26;19999;-47
2024/05/03 06:19:07;;;;;;;10.05;2.83;;;18.70;83.50;22.30;99863.00;;;;5452903;26;20003;-48
2024/05/03 06:21:33;;;;;;;4.47;2.90;;;18.80;81.50;22.70;99858.00;;;;5439777;26;20003;-50
2024/05/03 06:23:59;;;;;;;7.22;2.83;;;18.90;80.90;22.60;99855.00;;;;5466003;26;19998;-48
2024/05/03 06:26:27;;;;;;;10.35;3.03;;;19.10;79.70;22.90;99867.00;;;;5462944;26;20006;-48
2024/05/03 06:28:55;;;;;;;18.83;3.08;;;19.20;79.50;22.70;99870.00;;;;5444646;26;20098;-48
2024/05/03 06:31:21;;;;;;;6.32;3.05;;;19.30;79.20;23.00;99861.00;;;;5444471;26;20018;-52
2024/05/03 06:33:48;;;;;;;5.78;3.10;;;19.40;79.80;23.40;99858.00;;;;5454743;26;20023;-49
2024/05/03 06:36:17;;;;;;;9.60;3.30;;;19.50;79.70;23.10;99870.00;;;;5441929;26;20004;-49
2024/05/03 06:38:46;;;;;;;9.45;2.97;;;19.60;79.00;23.20;99870.00;;;;5454566;26;20018;-50
2024/05/03 06:41:13;;;;;;;9.63;3.20;;;19.70;78.40;23.40;99864.00;;;;5443964;26;20326;-48
2024/05/03 06:43:39;;;;;;;5.72;3.28;;;19.80;78.00;23.60;99865.00;;;;5449013;26;20017;-49
2024/05/03 06:46:05;;;;;;;6.90;3.13;;;19.90;77.60;23.80;99865.00;;;;5443181;26;20500;-48
2024/05/03 06:48:33;;;;;;;7.15;3.03;;;20.10;77.80;23.90;99871.00;;;;5450786;26;20469;-52
2024/05/03 06:51:00;;;;;;;11.65;3.42;;;20.10;77.90;23.60;99873.00;;;;5443872;26;20003;-49
2024/05/03 06:53:29;;;;;;;7.90;3.50;;;20.20;76.00;23.90;99871.00;;;;5443862;26;20448;-48
2024/05/03 06:55:56;;;;;;;10.45;3.45;;;20.20;75.30;24.00;99870.00;;;;5450817;26;19999;-50
2024/05/03 06:58:22;;;;;;;7.47;2.95;;;20.40;74.20;24.20;99866.00;;;;5440739;26;20072;-48
2024/05/03 07:00:48;;;;;;;8.68;3.10;;;20.50;74.40;24.60;99877.00;;;;5452378;26;19999;-48
2024/05/03 07:03:14;;;;;;;4.32;2.85;;;20.70;74.40;25.00;99872.00;;;;5459369;26;20010;-56
2024/05/03 07:05:40;;;;;;;5.13;3.08;;;21.00;73.90;25.30;99869.00;;;;5441381;26;19996;-48
2024/05/03 07:08:10;;;;;;;7.25;2.90;;;21.10;75.30;25.20;99878.00;;;;5443577;26;20098;-48
2024/05/03 07:10:36;;;;;;;9.75;2.95;;;21.30;72.70;25.30;99879.00;;;;5449393;26;20083;-48
2024/05/03 07:13:03;;;;;;;4.05;2.45;;;21.40;70.50;25.40;99881.00;;;;5437827;26;20038;-49
2024/05/03 07:15:29;;;;;;;7.68;2.55;;;21.70;70.60;25.60;99879.00;;;;5442158;26;19999;-49
2024/05/03 07:17:57;;;;;;;5.43;2.55;;;21.80;71.80;26.10;99883.00;;;;5448652;26;20006;-49
2024/05/03 07:20:23;;;;;;;3.90;2.60;;;22.00;70.20;26.10;99880.00;;;;5440206;26;19995;-48
2024/05/03 07:22:49;;;;;;;5.97;2.60;;;22.20;68.60;26.30;99875.00;;;;5455267;26;20333;-48
2024/05/03 07:25:15;;;;;;;6.18;2.72;;;22.40;69.30;26.30;99883.00;;;;5443390;26;20011;-55
2024/05/03 07:27:41;;;;;;;5.00;2.70;;;22.50;69.60;26.20;99886.00;;;;5455930;26;19999;-48
2024/05/03 07:30:08;;;;;;;14.15;3.78;;;22.60;67.60;26.50;99887.00;;;;5447123;26;20081;-48
2024/05/03 07:32:36;;;;;;;4.53;2.40;;;22.70;67.80;26.50;99874.00;;;;5447628;26;20071;-50
2024/05/03 07:35:03;;;;;;;11.02;2.83;;;22.90;66.90;26.80;99881.00;;;;5442755;26;20429;-49
2024/05/03 07:37:30;;;;;;;4.97;2.10;;;23.10;66.10;26.60;99885.00;;;;5422975;26;20007;-49
2024/05/03 07:39:56;;;;;;;10.38;2.58;;;23.20;65.20;26.60;99889.00;;;;5432586;26;20374;-48
2024/05/03 07:42:22;;;;;;;11.00;2.47;;;23.20;65.10;26.80;99879.00;;;;5450610;26;20419;-48
2024/05/03 07:44:49;;;;;;;4.13;2.30;;;23.30;65.20;26.70;99879.00;;;;5455476;26;20003;-48
2024/05/03 07:47:15;;;;;;;7.20;3.28;;;23.50;63.60;27.20;99884.00;;;;5466283;26;20004;-49
2024/05/03 07:49:41;;;;;;;7.70;2.63;;;23.60;63.70;27.50;99880.00;;;;5451399;26;20003;-50
2024/05/03 07:52:07;;;;;;;5.93;2.65;;;23.80;63.30;27.70;99888.00;;;;5454608;26;19999;-49
2024/05/03 07:54:33;;;;;;;6.35;2.40;;;24.00;64.00;27.80;99886.00;;;;5446997;26;19998;-48
2024/05/03 07:56:59;;;;;;;10.18;2.72;;;24.10;63.10;27.90;99887.00;;;;5463861;26;19999;-49
2024/05/03 07:59:25;;;;;;;5.45;2.70;;;24.30;62.20;27.90;99880.00;;;;5441690;26;20011;-49
2024/05/03 08:01:54;;;;;;;6.22;2.35;;;24.30;62.50;27.60;99879.00;;;;5450768;26;19998;-48
2024/05/03 08:04:20;;;;;;;8.43;2.10;;;24.20;60.20;27.60;99885.00;;;;5440883;26;20002;-49
2024/05/03 08:06:46;;;;;;;6.60;2.08;;;24.30;59.00;28.00;99883.00;;;;5451335;26;20039;-55
2024/05/03 08:09:12;;;;;;;4.40;2.13;;;24.50;60.20;27.90;99891.00;;;;5439582;26;20000;-50
2024/05/03 08:11:38;;;;;;;6.88;2.10;;;24.60;59.40;28.20;99887.00;;;;5443881;26;20025;-49
2024/05/03 08:14:04;;;;;;;4.63;2.50;;;24.80;58.70;27.90;99888.00;;;;5439508;26;20081;-49
2024/05/03 08:16:30;;;;;;;3.55;2.30;;;24.70;57.70;28.20;99884.00;;;;5433169;26;20004;-49
2024/05/03 08:18:59;;;;;;;6.25;2.10;;;24.90;58.80;28.00;99888.00;;;;5463581;26;20064;-48
2024/05/03 08:21:30;;;;;;;2.63;2.10;;;25.10;56.90;28.50;99891.00;;;;5448079;26;20312;-49
2024/05/03 08:23:56;;;;;;;7.90;2.05;;;25.30;56.30;28.90;99890.00;;;;5449702;26;20006;-49
2024/05/03 08:26:23;;;;;;;2.95;1.95;;;25.50;56.00;28.80;99891.00;;;;5452504;26;20160;-49
2024/05/03 08:28:49;;;;;;;5.82;2.20;;;25.70;54.80;28.90;99892.00;;;;5454030;26;19991;-49
2024/05/03 08:31:15;;;;;;;8.88;2.22;;;25.70;55.00;28.60;99895.00;;;;5455409;26;19999;-48
2024/05/03 08:33:41;;;;;;;7.13;2.05;;;25.70;54.90;28.50;99901.00;;;;5456899;26;19991;-52
2024/05/03 08:36:07;;;;;;;4.30;2.00;;;25.60;54.90;29.10;99899.00;;;;5454977;26;20044;-48
2024/05/03 08:38:34;;;;;;;16.27;2.60;;;25.80;55.70;29.40;99897.00;;;;5454877;26;20029;-49
2024/05/03 08:41:05;;;;;;;6.45;2.25;;;26.10;54.20;29.70;99891.00;;;;5454263;26;20002;-52
2024/05/03 08:44:08;;;;;;;6.53;2.83;;;26.40;53.40;30.10;99904.00;;;;5455392;26;19991;-49
2024/05/03 08:46:44;;;;;;;6.55;2.60;;;26.60;53.20;30.30;99896.00;;;;5454630;26;19994;-49
2024/05/03 08:49:17;;;;;;;6.63;2.42;;;27.00;52.00;30.20;99894.00;;;;5456809;26;20382;-48
2024/05/03 08:51:48;;;;;;;6.18;2.10;;;26.90;50.90;30.40;99889.00;;;;5457657;26;20036;-49
2024/05/03 08:54:21;;;;;;;8.27;2.30;;;27.20;50.50;30.30;99889.00;;;;5459115;26;20036;-49
2024/05/03 08:56:47;;;;;;;6.57;1.90;;;27.40;50.20;30.30;99891.00;;;;5458771;26;20370;-49
2024/05/03 08:59:16;;;;;;;5.30;1.80;;;27.30;49.60;30.60;99899.00;;;;5457912;26;20425;-48
2024/05/03 09:01:42;;;;;;;4.25;1.95;;;27.40;49.30;30.70;99894.00;;;;5456931;26;20301;-48
2024/05/03 09:04:11;;;;;;;10.05;1.80;;;27.50;50.20;30.30;99897.00;;;;5458173;26;20444;-48
2024/05/03 09:06:46;;;;;;;9.00;2.47;;;27.30;49.90;30.80;99895.00;;;;5458026;26;20018;-56
2024/05/03 09:09:12;;;;;;;3.03;2.25;;;27.60;49.30;31.10;99896.00;;;;5457799;26;19990;-50
2024/05/03 09:11:40;;;;;;;4.25;1.80;;;27.80;49.00;31.10;99895.00;;;;5457926;26;20436;-51
2024/05/03 09:14:07;;;;;;;4.15;2.15;;;28.10;48.70;31.40;99894.00;;;;5457582;26;19991;-49
2024/05/03 09:16:33;;;;;;;4.65;2.03;;;28.10;47.20;32.00;99902.00;;;;5457208;26;19999;-49
2024/05/03 09:18:59;;;;;;;7.63;2.42;;;28.60;47.70;31.80;99892.00;;;;5457465;26;20001;-49
2024/05/03 09:21:25;;;;;;;8.45;2.05;;;28.70;47.30;32.50;99886.00;;;;5457462;26;20377;-50
2024/05/03 09:23:52;;;;;;;4.22;1.90;;;28.90;46.60;32.80;99888.00;;;;5458313;26;19994;-48
2024/05/03 09:26:18;;;;;;;4.80;2.25;;;29.40;47.00;32.60;99886.00;;;;5457252;26;20030;-49
2024/05/03 09:28:46;;;;;;;7.40;2.28;;;29.30;45.50;32.50;99893.00;;;;5457914;26;19991;-49
2024/05/03 09:31:20;;;;;;;6.63;1.90;;;29.40;44.30;33.50;99900.00;;;;5457154;26;20009;-49
2024/05/03 09:33:50;;;;;;;5.45;2.00;;;29.70;44.50;33.50;99896.00;;;;5457041;26;20026;-48
2024/05/03 09:36:17;;;;;;;5.03;1.80;;;29.90;43.80;33.90;99900.00;;;;5457268;26;19999;-48
2024/05/03 09:38:45;;;;;;;5.75;1.35;;;30.40;42.50;33.50;99895.00;;;;5458200;26;19995;-56
2024/05/03 09:41:13;;;;;;;15.63;2.00;;;29.90;42.10;33.90;99893.00;;;;5458219;26;19995;-50
2024/05/03 09:43:39;;;;;;;7.97;2.35;;;30.30;43.00;33.90;99893.00;;;;5457766;26;19991;-52
2024/05/03 09:46:05;;;;;;;5.22;2.03;;;30.30;42.70;33.80;99894.00;;;;5457536;26;19995;-53
2024/05/03 09:48:32;;;;;;;4.72;1.80;;;30.30;42.60;33.30;99890.00;;;;5457314;26;19998;-49
2024/05/03 09:51:03;;;;;;;9.18;1.83;;;30.00;42.70;32.90;99889.00;;;;5456138;26;19995;-57
2024/05/03 09:53:31;;;;;;;8.73;1.80;;;29.60;43.10;34.20;99893.00;;;;5457488;26;19987;-48
2024/05/03 09:56:14;;;;;;;5.25;2.20;;;30.50;44.00;34.80;99899.00;;;;5456793;26;19995;-49
2024/05/03 09:58:52;;;;;;;2.58;1.70;;;31.30;44.10;34.80;99906.00;;;;5456666;26;20002;-54
2024/05/03 10:01:25;;;;;;;10.23;2.05;;;31.30;42.80;35.60;99902.00;;;;5455373;26;20034;-49
2024/05/03 10:03:52;;;;;;;;;;;32.20;42.60;36.00;99896.00;;;;5457824;26;20393;-49
2024/05/03 10:06:19;;;;;;;2.35;1.70;;;32.80;41.70;36.70;99903.00;;;;5457491;26;19924;-48
2024/05/03 10:08:47;;;;;;;4.72;2.00;;;33.40;41.00;36.20;99899.00;;;;5456633;26;19995;-48
2024/05/03 10:11:13;;;;;;;2.53;2.13;;;32.60;41.10;35.90;99891.00;;;;5457369;26;20035;-49
2024/05/03 10:13:45;;;;;;;7.28;1.92;;;32.50;41.30;35.90;99897.00;;;;5457013;26;20354;-49
2024/05/03 10:16:17;;;;;;;3.30;2.30;;;32.40;41.40;35.70;99894.00;;;;5456233;26;20085;-55
2024/05/03 10:18:44;;;;;;;4.55;2.13;;;32.60;40.40;36.00;99892.00;;;;5456203;26;19998;-48
2024/05/03 10:21:34;;;;;;;3.05;1.77;;;32.50;40.60;36.00;99894.00;;;;5456528;26;19987;-58
2024/05/03 10:24:02;;;;;;;3.47;1.67;;;32.50;41.10;35.30;99887.00;;;;5456669;26;19987;-48
2024/05/03 10:26:38;;;;;;;8.60;1.60;;;32.20;40.60;35.40;99889.00;;;;5454666;26;20053;-53
2024/05/03 10:29:05;;;;;;;6.25;1.35;;;32.40;40.10;34.60;99883.00;;;;5456434;26;20023;-48
2024/05/03 10:31:43;;;;;;;6.25;2.13;;;31.60;40.40;35.30;99890.00;;;;5456513;26;20122;-49
2024/05/03 10:34:28;;;;;;;6.82;2.10;;;31.90;41.10;35.40;99889.00;;;;5454706;26;19995;-57
2024/05/03 10:37:02;;;;;;;4.60;1.83;;;32.10;40.60;35.60;99895.00;;;;5456954;26;20456;-48
2024/05/03 10:39:28;;;;;;;9.18;2.00;;;32.20;40.70;36.00;99890.00;;;;5457510;26;20038;-50
2024/05/03 10:41:54;;;;;;;5.43;1.63;;;32.40;40.10;36.50;99884.00;;;;5456857;26;19994;-49
2024/05/03 10:44:20;;;;;;;7.82;1.67;;;32.90;40.20;37.00;99888.00;;;;5457599;26;20068;-48
2024/05/03 10:46:48;;;;;;;5.00;1.77;;;33.30;41.00;37.20;99894.00;;;;5455719;26;20320;-50
2024/05/03 10:49:15;;;;;;;8.63;1.92;;;33.60;39.80;36.20;99890.00;;;;5456934;26;20325;-51
2024/05/03 10:51:41;;;;;;;5.78;2.00;;;32.90;39.50;36.10;99890.00;;;;5457094;26;20424;-49
2024/05/03 10:54:08;;;;;;;5.97;1.83;;;32.90;39.50;36.20;99888.00;;;;5457023;26;20007;-48